sensor_id;sensor_type;location;lat;lon;timestamp;temperature;humidity
77839;SHT31;67034;43.226;27.932;2023-05-28T00:00:11;18.13;76.91
77839;SHT31;67034;43.226;27.932;2023-05-28T00:02:37;18.12;77.16
77839;SHT31;67034;43.226;27.932;2023-05-28T00:05:03;18.10;77.21
77839;SHT31;67034;43.226;27.932;2023-05-28T00:07:29;18.26;76.81
77839;SHT31;67034;43.226;27.932;2023-05-28T00:09:57;18.14;76.81
77839;SHT31;67034;43.226;27.932;2023-05-28T00:12:23;18.06;77.11
77839;SHT31;67034;43.226;27.932;2023-05-28T00:14:49;17.99;77.36
77839;SHT31;67034;43.226;27.932;2023-05-28T00:17:16;17.93;77.43
77839;SHT31;67034;43.226;27.932;2023-05-28T00:19:42;17.98;77.39
77839;SHT31;67034;43.226;27.932;2023-05-28T00:22:09;18.06;76.97
77839;SHT31;67034;43.226;27.932;2023-05-28T00:24:34;17.90;77.17
77839;SHT31;67034;43.226;27.932;2023-05-28T00:27:02;17.85;77.40
77839;SHT31;67034;43.226;27.932;2023-05-28T00:29:28;17.83;77.57
77839;SHT31;67034;43.226;27.932;2023-05-28T00:31:54;17.82;77.72
77839;SHT31;67034;43.226;27.932;2023-05-28T00:34:21;17.99;77.30
77839;SHT31;67034;43.226;27.932;2023-05-28T00:36:47;17.99;77.11
77839;SHT31;67034;43.226;27.932;2023-05-28T00:39:14;17.90;77.33
77839;SHT31;67034;43.226;27.932;2023-05-28T00:41:39;17.86;77.50
77839;SHT31;67034;43.226;27.932;2023-05-28T00:44:07;17.89;77.54
77839;SHT31;67034;43.226;27.932;2023-05-28T00:46:34;17.96;77.34
77839;SHT31;67034;43.226;27.932;2023-05-28T00:49:01;18.08;77.08
77839;SHT31;67034;43.226;27.932;2023-05-28T00:51:27;17.98;77.05
77839;SHT31;67034;43.226;27.932;2023-05-28T00:53:53;17.88;77.28
77839;SHT31;67034;43.226;27.932;2023-05-28T00:56:18;17.81;77.46
77839;SHT31;67034;43.226;27.932;2023-05-28T00:58:44;17.83;77.52
77839;SHT31;67034;43.226;27.932;2023-05-28T01:01:15;17.93;77.33
77839;SHT31;67034;43.226;27.932;2023-05-28T01:03:42;17.96;77.14
77839;SHT31;67034;43.226;27.932;2023-05-28T01:06:10;17.86;77.52
77839;SHT31;67034;43.226;27.932;2023-05-28T01:08:40;17.83;77.73
77839;SHT31;67034;43.226;27.932;2023-05-28T01:11:08;17.86;77.81
77839;SHT31;67034;43.226;27.932;2023-05-28T01:13:35;17.99;77.57
77839;SHT31;67034;43.226;27.932;2023-05-28T01:16:02;18.12;77.03
77839;SHT31;67034;43.226;27.932;2023-05-28T01:18:30;18.03;76.89
77839;SHT31;67034;43.226;27.932;2023-05-28T01:20:57;18.03;77.07
77839;SHT31;67034;43.226;27.932;2023-05-28T01:23:25;18.09;76.98
77839;SHT31;67034;43.226;27.932;2023-05-28T01:25:53;18.14;76.77
77839;SHT31;67034;43.226;27.932;2023-05-28T01:28:21;18.37;76.45
77839;SHT31;67034;43.226;27.932;2023-05-28T01:30:50;18.44;75.92
77839;SHT31;67034;43.226;27.932;2023-05-28T01:33:16;18.34;76.37
77839;SHT31;67034;43.226;27.932;2023-05-28T01:35:43;18.27;76.67
77839;SHT31;67034;43.226;27.932;2023-05-28T01:38:10;18.30;76.76
77839;SHT31;67034;43.226;27.932;2023-05-28T01:40:39;18.40;76.60
77839;SHT31;67034;43.226;27.932;2023-05-28T01:43:06;18.58;76.28
77839;SHT31;67034;43.226;27.932;2023-05-28T01:45:33;18.41;76.46
77839;SHT31;67034;43.226;27.932;2023-05-28T01:47:59;18.37;76.64
77839;SHT31;67034;43.226;27.932;2023-05-28T01:50:25;18.41;76.79
77839;SHT31;67034;43.226;27.932;2023-05-28T01:52:51;18.44;76.80
77839;SHT31;67034;43.226;27.932;2023-05-28T01:55:17;18.61;76.47
77839;SHT31;67034;43.226;27.932;2023-05-28T01:57:43;18.67;76.01
77839;SHT31;67034;43.226;27.932;2023-05-28T02:00:11;18.57;76.35
77839;SHT31;67034;43.226;27.932;2023-05-28T02:02:37;18.50;76.68
77839;SHT31;67034;43.226;27.932;2023-05-28T02:05:03;18.50;76.81
77839;SHT31;67034;43.226;27.932;2023-05-28T02:07:29;18.69;76.60
77839;SHT31;67034;43.226;27.932;2023-05-28T02:09:55;18.88;76.01
77839;SHT31;67034;43.226;27.932;2023-05-28T02:12:20;18.84;75.92
77839;SHT31;67034;43.226;27.932;2023-05-28T02:14:46;18.81;76.13
77839;SHT31;67034;43.226;27.932;2023-05-28T02:17:13;18.81;76.26
77839;SHT31;67034;43.226;27.932;2023-05-28T02:19:39;18.79;76.25
77839;SHT31;67034;43.226;27.932;2023-05-28T02:22:05;18.99;75.95
77839;SHT31;67034;43.226;27.932;2023-05-28T02:24:36;19.01;75.78
77839;SHT31;67034;43.226;27.932;2023-05-28T02:27:02;18.94;76.14
77839;SHT31;67034;43.226;27.932;2023-05-28T02:29:29;18.79;76.44
77839;SHT31;67034;43.226;27.932;2023-05-28T02:31:54;18.74;76.76
77839;SHT31;67034;43.226;27.932;2023-05-28T02:34:21;18.78;76.84
77839;SHT31;67034;43.226;27.932;2023-05-28T02:36:47;18.94;76.40
77839;SHT31;67034;43.226;27.932;2023-05-28T02:39:13;18.77;76.71
77839;SHT31;67034;43.226;27.932;2023-05-28T02:41:40;18.65;77.01
77839;SHT31;67034;43.226;27.932;2023-05-28T02:44:05;18.58;77.30
77839;SHT31;67034;43.226;27.932;2023-05-28T02:46:31;18.67;77.29
77839;SHT31;67034;43.226;27.932;2023-05-28T02:48:57;18.89;76.70
77839;SHT31;67034;43.226;27.932;2023-05-28T02:51:24;18.83;76.55
77839;SHT31;67034;43.226;27.932;2023-05-28T02:53:50;18.77;76.79
77839;SHT31;67034;43.226;27.932;2023-05-28T02:56:15;18.89;76.62
77839;SHT31;67034;43.226;27.932;2023-05-28T02:58:41;18.94;76.64
77839;SHT31;67034;43.226;27.932;2023-05-28T03:01:07;19.08;76.35
77839;SHT31;67034;43.226;27.932;2023-05-28T03:03:33;19.23;75.93
77839;SHT31;67034;43.226;27.932;2023-05-28T03:05:58;19.12;75.95
77839;SHT31;67034;43.226;27.932;2023-05-28T03:08:25;19.11;76.05
77839;SHT31;67034;43.226;27.932;2023-05-28T03:10:51;19.18;75.69
77839;SHT31;67034;43.226;27.932;2023-05-28T03:13:19;19.08;75.65
77839;SHT31;67034;43.226;27.932;2023-05-28T03:15:44;19.29;75.27
77839;SHT31;67034;43.226;27.932;2023-05-28T03:18:10;19.22;75.15
77839;SHT31;67034;43.226;27.932;2023-05-28T03:20:36;19.23;75.59
77839;SHT31;67034;43.226;27.932;2023-05-28T03:23:02;19.22;75.52
77839;SHT31;67034;43.226;27.932;2023-05-28T03:25:29;19.20;75.54
77839;SHT31;67034;43.226;27.932;2023-05-28T03:27:55;19.33;75.12
77839;SHT31;67034;43.226;27.932;2023-05-28T03:30:20;19.52;74.48
77839;SHT31;67034;43.226;27.932;2023-05-28T03:32:49;19.43;74.85
77839;SHT31;67034;43.226;27.932;2023-05-28T03:35:15;19.35;75.04
77839;SHT31;67034;43.226;27.932;2023-05-28T03:37:41;19.18;74.78
77839;SHT31;67034;43.226;27.932;2023-05-28T03:40:08;19.16;74.88
77839;SHT31;67034;43.226;27.932;2023-05-28T03:42:35;19.36;74.44
77839;SHT31;67034;43.226;27.932;2023-05-28T03:45:01;19.16;74.44
77839;SHT31;67034;43.226;27.932;2023-05-28T03:47:27;19.01;74.87
77839;SHT31;67034;43.226;27.932;2023-05-28T03:49:56;18.94;75.09
77839;SHT31;67034;43.226;27.932;2023-05-28T03:52:21;18.94;75.05
77839;SHT31;67034;43.226;27.932;2023-05-28T03:54:47;19.04;74.84
77839;SHT31;67034;43.226;27.932;2023-05-28T03:57:13;19.12;74.44
77839;SHT31;67034;43.226;27.932;2023-05-28T03:59:40;19.11;74.45
77839;SHT31;67034;43.226;27.932;2023-05-28T04:02:05;19.11;74.63
77839;SHT31;67034;43.226;27.932;2023-05-28T04:04:31;19.09;74.75
77839;SHT31;67034;43.226;27.932;2023-05-28T04:06:57;19.11;74.51
77839;SHT31;67034;43.226;27.932;2023-05-28T04:09:22;19.20;73.93
77839;SHT31;67034;43.226;27.932;2023-05-28T04:11:48;19.23;74.03
77839;SHT31;67034;43.226;27.932;2023-05-28T04:14:14;19.15;74.12
77839;SHT31;67034;43.226;27.932;2023-05-28T04:16:41;19.09;73.73
77839;SHT31;67034;43.226;27.932;2023-05-28T04:19:07;19.04;73.67
77839;SHT31;67034;43.226;27.932;2023-05-28T04:21:32;19.20;73.29
77839;SHT31;67034;43.226;27.932;2023-05-28T04:23:58;19.39;72.79
77839;SHT31;67034;43.226;27.932;2023-05-28T04:26:24;19.29;73.17
77839;SHT31;67034;43.226;27.932;2023-05-28T04:28:50;19.23;73.30
77839;SHT31;67034;43.226;27.932;2023-05-28T04:31:18;19.23;73.35
77839;SHT31;67034;43.226;27.932;2023-05-28T04:33:45;19.35;73.45
77839;SHT31;67034;43.226;27.932;2023-05-28T04:36:12;19.50;72.83
77839;SHT31;67034;43.226;27.932;2023-05-28T04:38:39;19.43;72.66
77839;SHT31;67034;43.226;27.932;2023-05-28T04:41:08;19.26;73.18
77839;SHT31;67034;43.226;27.932;2023-05-28T04:43:34;19.27;73.34
77839;SHT31;67034;43.226;27.932;2023-05-28T04:46:01;19.43;73.50
77839;SHT31;67034;43.226;27.932;2023-05-28T04:48:28;19.69;72.77
77839;SHT31;67034;43.226;27.932;2023-05-28T04:50:58;19.77;72.22
77839;SHT31;67034;43.226;27.932;2023-05-28T04:53:24;19.80;72.20
77839;SHT31;67034;43.226;27.932;2023-05-28T04:55:53;19.80;72.38
77839;SHT31;67034;43.226;27.932;2023-05-28T04:58:18;19.84;71.92
77839;SHT31;67034;43.226;27.932;2023-05-28T05:00:44;20.03;71.81
77839;SHT31;67034;43.226;27.932;2023-05-28T05:03:10;20.13;70.97
77839;SHT31;67034;43.226;27.932;2023-05-28T05:05:35;20.00;70.74
77839;SHT31;67034;43.226;27.932;2023-05-28T05:08:02;19.83;70.86
77839;SHT31;67034;43.226;27.932;2023-05-28T05:10:28;19.80;71.11
77839;SHT31;67034;43.226;27.932;2023-05-28T05:12:54;19.77;71.38
77839;SHT31;67034;43.226;27.932;2023-05-28T05:15:20;19.85;70.98
77839;SHT31;67034;43.226;27.932;2023-05-28T05:17:45;19.71;70.72
77839;SHT31;67034;43.226;27.932;2023-05-28T05:20:12;19.63;71.33
77839;SHT31;67034;43.226;27.932;2023-05-28T05:22:38;19.55;71.44
77839;SHT31;67034;43.226;27.932;2023-05-28T05:25:06;19.55;71.18
77839;SHT31;67034;43.226;27.932;2023-05-28T05:27:34;19.70;70.52
77839;SHT31;67034;43.226;27.932;2023-05-28T05:30:00;19.69;70.33
77839;SHT31;67034;43.226;27.932;2023-05-28T05:32:26;19.57;70.85
77839;SHT31;67034;43.226;27.932;2023-05-28T05:34:52;19.46;71.37
77839;SHT31;67034;43.226;27.932;2023-05-28T05:37:17;19.40;71.98
77839;SHT31;67034;43.226;27.932;2023-05-28T05:39:43;19.42;72.21
77839;SHT31;67034;43.226;27.932;2023-05-28T05:42:10;19.49;72.21
77839;SHT31;67034;43.226;27.932;2023-05-28T05:44:36;19.35;72.72
77839;SHT31;67034;43.226;27.932;2023-05-28T05:47:01;19.27;73.29
77839;SHT31;67034;43.226;27.932;2023-05-28T05:49:27;19.18;74.09
77839;SHT31;67034;43.226;27.932;2023-05-28T05:51:53;19.16;74.26
77839;SHT31;67034;43.226;27.932;2023-05-28T05:54:18;19.32;74.09
77839;SHT31;67034;43.226;27.932;2023-05-28T05:56:44;19.27;74.66
77839;SHT31;67034;43.226;27.932;2023-05-28T05:59:11;19.14;75.24
77839;SHT31;67034;43.226;27.932;2023-05-28T06:01:37;19.11;75.65
77839;SHT31;67034;43.226;27.932;2023-05-28T06:04:03;19.06;75.92
77839;SHT31;67034;43.226;27.932;2023-05-28T06:06:29;19.05;75.95
77839;SHT31;67034;43.226;27.932;2023-05-28T06:08:54;19.14;75.80
77839;SHT31;67034;43.226;27.932;2023-05-28T06:11:20;19.04;76.21
77839;SHT31;67034;43.226;27.932;2023-05-28T06:13:49;18.94;76.45
77839;SHT31;67034;43.226;27.932;2023-05-28T06:16:16;19.01;76.43
77839;SHT31;67034;43.226;27.932;2023-05-28T06:18:43;19.12;76.61
77839;SHT31;67034;43.226;27.932;2023-05-28T06:21:09;19.39;76.10
77839;SHT31;67034;43.226;27.932;2023-05-28T06:23:35;19.45;76.12
77839;SHT31;67034;43.226;27.932;2023-05-28T06:26:01;19.43;76.58
77839;SHT31;67034;43.226;27.932;2023-05-28T06:28:28;19.55;76.53
77839;SHT31;67034;43.226;27.932;2023-05-28T06:30:54;19.59;76.86
77839;SHT31;67034;43.226;27.932;2023-05-28T06:33:21;19.84;76.71
77839;SHT31;67034;43.226;27.932;2023-05-28T06:35:47;20.11;76.26
77839;SHT31;67034;43.226;27.932;2023-05-28T06:38:12;19.93;76.54
77839;SHT31;67034;43.226;27.932;2023-05-28T06:40:38;19.78;76.57
77839;SHT31;67034;43.226;27.932;2023-05-28T06:43:04;19.69;76.77
77839;SHT31;67034;43.226;27.932;2023-05-28T06:45:30;19.69;76.80
77839;SHT31;67034;43.226;27.932;2023-05-28T06:47:58;19.88;76.24
77839;SHT31;67034;43.226;27.932;2023-05-28T06:50:25;19.81;76.32
77839;SHT31;67034;43.226;27.932;2023-05-28T06:52:51;19.76;76.79
77839;SHT31;67034;43.226;27.932;2023-05-28T06:55:16;19.78;76.82
77839;SHT31;67034;43.226;27.932;2023-05-28T06:57:42;19.83;76.72
77839;SHT31;67034;43.226;27.932;2023-05-28T07:00:10;19.91;76.25
77839;SHT31;67034;43.226;27.932;2023-05-28T07:02:42;19.88;75.87
77839;SHT31;67034;43.226;27.932;2023-05-28T07:05:08;19.53;76.54
77839;SHT31;67034;43.226;27.932;2023-05-28T07:07:36;19.60;76.91
77839;SHT31;67034;43.226;27.932;2023-05-28T07:10:02;19.62;77.29
77839;SHT31;67034;43.226;27.932;2023-05-28T07:12:28;19.64;77.31
77839;SHT31;67034;43.226;27.932;2023-05-28T07:14:54;19.94;76.56
77839;SHT31;67034;43.226;27.932;2023-05-28T07:17:20;19.88;76.80
77839;SHT31;67034;43.226;27.932;2023-05-28T07:19:46;19.97;76.81
77839;SHT31;67034;43.226;27.932;2023-05-28T07:22:12;20.01;76.77
77839;SHT31;67034;43.226;27.932;2023-05-28T07:24:39;20.10;76.59
77839;SHT31;67034;43.226;27.932;2023-05-28T07:27:05;20.22;76.15
77839;SHT31;67034;43.226;27.932;2023-05-28T07:29:31;20.49;75.59
77839;SHT31;67034;43.226;27.932;2023-05-28T07:31:57;20.42;76.01
77839;SHT31;67034;43.226;27.932;2023-05-28T07:34:23;20.48;75.78
77839;SHT31;67034;43.226;27.932;2023-05-28T07:36:48;20.48;74.81
77839;SHT31;67034;43.226;27.932;2023-05-28T07:39:14;20.61;74.85
77839;SHT31;67034;43.226;27.932;2023-05-28T07:41:41;20.86;73.80
77839;SHT31;67034;43.226;27.932;2023-05-28T07:44:07;20.79;74.09
77839;SHT31;67034;43.226;27.932;2023-05-28T07:46:33;20.82;74.29
77839;SHT31;67034;43.226;27.932;2023-05-28T07:48:59;21.03;74.15
77839;SHT31;67034;43.226;27.932;2023-05-28T07:51:25;21.14;73.60
77839;SHT31;67034;43.226;27.932;2023-05-28T07:53:53;21.32;72.51
77839;SHT31;67034;43.226;27.932;2023-05-28T07:56:20;21.10;71.47
77839;SHT31;67034;43.226;27.932;2023-05-28T07:58:47;21.01;72.24
77839;SHT31;67034;43.226;27.932;2023-05-28T08:01:13;20.93;72.08
77839;SHT31;67034;43.226;27.932;2023-05-28T08:03:39;20.92;71.90
77839;SHT31;67034;43.226;27.932;2023-05-28T08:06:05;21.15;71.36
77839;SHT31;67034;43.226;27.932;2023-05-28T08:08:31;21.19;70.69
77839;SHT31;67034;43.226;27.932;2023-05-28T08:10:57;20.99;71.28
77839;SHT31;67034;43.226;27.932;2023-05-28T08:13:23;20.84;71.65
77839;SHT31;67034;43.226;27.932;2023-05-28T08:15:50;20.75;72.30
77839;SHT31;67034;43.226;27.932;2023-05-28T08:18:16;20.76;72.63
77839;SHT31;67034;43.226;27.932;2023-05-28T08:20:42;20.84;72.79
77839;SHT31;67034;43.226;27.932;2023-05-28T08:23:08;20.62;73.86
77839;SHT31;67034;43.226;27.932;2023-05-28T08:25:34;20.43;74.20
77839;SHT31;67034;43.226;27.932;2023-05-28T08:28:00;20.43;74.37
77839;SHT31;67034;43.226;27.932;2023-05-28T08:30:26;20.35;74.70
77839;SHT31;67034;43.226;27.932;2023-05-28T08:32:53;20.55;74.02
77839;SHT31;67034;43.226;27.932;2023-05-28T08:35:18;20.35;74.56
77839;SHT31;67034;43.226;27.932;2023-05-28T08:37:44;20.32;74.75
77839;SHT31;67034;43.226;27.932;2023-05-28T08:40:11;20.45;74.92
77839;SHT31;67034;43.226;27.932;2023-05-28T08:42:38;20.42;74.80
77839;SHT31;67034;43.226;27.932;2023-05-28T08:45:05;20.71;73.90
77839;SHT31;67034;43.226;27.932;2023-05-28T08:47:36;20.57;73.01
77839;SHT31;67034;43.226;27.932;2023-05-28T08:50:06;20.43;73.70
77839;SHT31;67034;43.226;27.932;2023-05-28T08:52:32;20.46;73.99
77839;SHT31;67034;43.226;27.932;2023-05-28T08:54:58;20.53;73.75
77839;SHT31;67034;43.226;27.932;2023-05-28T08:57:24;20.72;72.90
77839;SHT31;67034;43.226;27.932;2023-05-28T08:59:52;20.73;71.99
77839;SHT31;67034;43.226;27.932;2023-05-28T09:02:24;20.62;72.13
77839;SHT31;67034;43.226;27.932;2023-05-28T09:04:50;20.61;72.00
77839;SHT31;67034;43.226;27.932;2023-05-28T09:07:18;20.79;71.90
77839;SHT31;67034;43.226;27.932;2023-05-28T09:09:44;21.08;71.02
77839;SHT31;67034;43.226;27.932;2023-05-28T09:12:11;21.23;70.14
77839;SHT31;67034;43.226;27.932;2023-05-28T09:14:37;21.28;70.11
77839;SHT31;67034;43.226;27.932;2023-05-28T09:17:04;21.50;69.77
77839;SHT31;67034;43.226;27.932;2023-05-28T09:19:30;21.82;68.83
77839;SHT31;67034;43.226;27.932;2023-05-28T09:21:57;21.83;68.78
77839;SHT31;67034;43.226;27.932;2023-05-28T09:24:26;21.92;68.62
77839;SHT31;67034;43.226;27.932;2023-05-28T09:26:54;21.93;69.00
77839;SHT31;67034;43.226;27.932;2023-05-28T09:29:20;22.12;68.70
77839;SHT31;67034;43.226;27.932;2023-05-28T09:31:54;22.29;67.73
77839;SHT31;67034;43.226;27.932;2023-05-28T09:34:20;22.58;67.24
77839;SHT31;67034;43.226;27.932;2023-05-28T09:36:45;22.85;65.39
77839;SHT31;67034;43.226;27.932;2023-05-28T09:39:11;23.16;65.85
77839;SHT31;67034;43.226;27.932;2023-05-28T09:41:38;23.49;65.76
77839;SHT31;67034;43.226;27.932;2023-05-28T09:44:09;23.70;63.90
77839;SHT31;67034;43.226;27.932;2023-05-28T09:46:36;24.15;63.65
77839;SHT31;67034;43.226;27.932;2023-05-28T09:49:03;24.41;61.12
77839;SHT31;67034;43.226;27.932;2023-05-28T09:51:30;24.39;60.35
77839;SHT31;67034;43.226;27.932;2023-05-28T09:53:57;24.12;60.52
77839;SHT31;67034;43.226;27.932;2023-05-28T09:56:25;23.80;60.93
77839;SHT31;67034;43.226;27.932;2023-05-28T09:58:56;23.98;60.95
77839;SHT31;67034;43.226;27.932;2023-05-28T10:01:25;24.31;60.29
77839;SHT31;67034;43.226;27.932;2023-05-28T10:03:56;24.18;60.72
77839;SHT31;67034;43.226;27.932;2023-05-28T10:06:27;24.11;61.00
77839;SHT31;67034;43.226;27.932;2023-05-28T10:08:54;23.57;59.02
77839;SHT31;67034;43.226;27.932;2023-05-28T10:11:22;23.30;60.82
77839;SHT31;67034;43.226;27.932;2023-05-28T10:13:50;23.38;61.52
77839;SHT31;67034;43.226;27.932;2023-05-28T10:16:18;23.02;60.77
77839;SHT31;67034;43.226;27.932;2023-05-28T10:18:44;22.91;61.23
77839;SHT31;67034;43.226;27.932;2023-05-28T10:21:10;23.06;61.84
77839;SHT31;67034;43.226;27.932;2023-05-28T10:23:39;23.16;62.18
77839;SHT31;67034;43.226;27.932;2023-05-28T10:26:06;23.41;60.45
77839;SHT31;67034;43.226;27.932;2023-05-28T10:28:32;23.30;60.17
77839;SHT31;67034;43.226;27.932;2023-05-28T10:31:02;23.15;60.11
77839;SHT31;67034;43.226;27.932;2023-05-28T10:33:30;23.30;60.13
77839;SHT31;67034;43.226;27.932;2023-05-28T10:35:58;23.50;59.82
77839;SHT31;67034;43.226;27.932;2023-05-28T10:38:25;23.84;59.40
77839;SHT31;67034;43.226;27.932;2023-05-28T10:40:59;23.64;58.74
77839;SHT31;67034;43.226;27.932;2023-05-28T10:43:40;23.93;59.97
77839;SHT31;67034;43.226;27.932;2023-05-28T10:46:12;24.24;59.79
77839;SHT31;67034;43.226;27.932;2023-05-28T10:48:40;24.51;59.26
77839;SHT31;67034;43.226;27.932;2023-05-28T10:51:09;24.76;58.16
77839;SHT31;67034;43.226;27.932;2023-05-28T10:53:36;24.42;58.95
77839;SHT31;67034;43.226;27.932;2023-05-28T10:56:03;24.35;59.25
77839;SHT31;67034;43.226;27.932;2023-05-28T10:58:33;24.20;59.22
77839;SHT31;67034;43.226;27.932;2023-05-28T11:01:18;24.08;60.10
77839;SHT31;67034;43.226;27.932;2023-05-28T11:03:52;23.94;60.72
77839;SHT31;67034;43.226;27.932;2023-05-28T11:06:18;23.98;59.21
77839;SHT31;67034;43.226;27.932;2023-05-28T11:08:44;23.49;59.14
77839;SHT31;67034;43.226;27.932;2023-05-28T11:11:11;23.45;60.39
77839;SHT31;67034;43.226;27.932;2023-05-28T11:13:38;23.47;60.89
77839;SHT31;67034;43.226;27.932;2023-05-28T11:16:07;23.66;60.26
77839;SHT31;67034;43.226;27.932;2023-05-28T11:18:33;23.62;60.19
77839;SHT31;67034;43.226;27.932;2023-05-28T11:21:03;23.75;59.99
77839;SHT31;67034;43.226;27.932;2023-05-28T11:23:29;23.74;60.71
77839;SHT31;67034;43.226;27.932;2023-05-28T11:25:55;23.94;59.73
77839;SHT31;67034;43.226;27.932;2023-05-28T11:28:22;24.12;58.91
77839;SHT31;67034;43.226;27.932;2023-05-28T11:30:50;24.17;58.28
77839;SHT31;67034;43.226;27.932;2023-05-28T11:33:16;24.22;58.03
77839;SHT31;67034;43.226;27.932;2023-05-28T11:35:42;24.17;59.35
77839;SHT31;67034;43.226;27.932;2023-05-28T11:38:09;24.10;58.50
77839;SHT31;67034;43.226;27.932;2023-05-28T11:40:35;24.31;58.47
77839;SHT31;67034;43.226;27.932;2023-05-28T11:43:01;24.32;57.68
77839;SHT31;67034;43.226;27.932;2023-05-28T11:45:27;24.53;57.27
77839;SHT31;67034;43.226;27.932;2023-05-28T11:47:53;24.97;56.15
77839;SHT31;67034;43.226;27.932;2023-05-28T11:50:20;25.34;55.09
77839;SHT31;67034;43.226;27.932;2023-05-28T11:52:47;25.45;54.67
77839;SHT31;67034;43.226;27.932;2023-05-28T11:55:15;25.49;54.24
77839;SHT31;67034;43.226;27.932;2023-05-28T11:57:52;25.35;53.91
77839;SHT31;67034;43.226;27.932;2023-05-28T12:00:19;25.23;55.08
77839;SHT31;67034;43.226;27.932;2023-05-28T12:02:47;25.20;55.15
77839;SHT31;67034;43.226;27.932;2023-05-28T12:05:14;25.16;55.68
77839;SHT31;67034;43.226;27.932;2023-05-28T12:07:44;25.31;55.33
77839;SHT31;67034;43.226;27.932;2023-05-28T12:10:12;25.38;55.44
77839;SHT31;67034;43.226;27.932;2023-05-28T12:12:41;25.64;55.38
77839;SHT31;67034;43.226;27.932;2023-05-28T12:15:08;25.52;54.93
77839;SHT31;67034;43.226;27.932;2023-05-28T12:17:35;25.28;55.33
77839;SHT31;67034;43.226;27.932;2023-05-28T12:20:05;25.21;55.49
77839;SHT31;67034;43.226;27.932;2023-05-28T12:22:32;25.16;55.69
77839;SHT31;67034;43.226;27.932;2023-05-28T12:24:58;24.96;55.61
77839;SHT31;67034;43.226;27.932;2023-05-28T12:27:24;24.97;55.86
77839;SHT31;67034;43.226;27.932;2023-05-28T12:29:51;25.26;55.43
77839;SHT31;67034;43.226;27.932;2023-05-28T12:32:17;25.33;55.39
77839;SHT31;67034;43.226;27.932;2023-05-28T12:34:44;25.49;55.41
77839;SHT31;67034;43.226;27.932;2023-05-28T12:37:10;25.68;54.50
77839;SHT31;67034;43.226;27.932;2023-05-28T12:39:37;25.90;54.17
77839;SHT31;67034;43.226;27.932;2023-05-28T12:42:03;25.76;53.28
77839;SHT31;67034;43.226;27.932;2023-05-28T12:44:29;25.75;53.74
77839;SHT31;67034;43.226;27.932;2023-05-28T12:46:56;25.95;52.77
77839;SHT31;67034;43.226;27.932;2023-05-28T12:49:22;25.95;53.08
77839;SHT31;67034;43.226;27.932;2023-05-28T12:51:47;25.89;52.74
77839;SHT31;67034;43.226;27.932;2023-05-28T12:54:13;25.67;53.35
77839;SHT31;67034;43.226;27.932;2023-05-28T12:56:39;25.59;53.84
77839;SHT31;67034;43.226;27.932;2023-05-28T12:59:04;25.55;53.91
77839;SHT31;67034;43.226;27.932;2023-05-28T13:01:30;25.64;53.91
77839;SHT31;67034;43.226;27.932;2023-05-28T13:03:57;25.62;53.95
77839;SHT31;67034;43.226;27.932;2023-05-28T13:06:23;25.42;53.38
77839;SHT31;67034;43.226;27.932;2023-05-28T13:08:49;25.07;54.34
77839;SHT31;67034;43.226;27.932;2023-05-28T13:11:14;25.03;55.43
77839;SHT31;67034;43.226;27.932;2023-05-28T13:13:40;25.10;54.68
77839;SHT31;67034;43.226;27.932;2023-05-28T13:16:06;24.80;54.97
77839;SHT31;67034;43.226;27.932;2023-05-28T13:18:31;24.70;55.70
77839;SHT31;67034;43.226;27.932;2023-05-28T13:20:58;24.89;55.33
77839;SHT31;67034;43.226;27.932;2023-05-28T13:23:24;25.09;55.09
77839;SHT31;67034;43.226;27.932;2023-05-28T13:25:50;25.33;54.51
77839;SHT31;67034;43.226;27.932;2023-05-28T13:28:16;25.78;54.93
77839;SHT31;67034;43.226;27.932;2023-05-28T13:30:42;26.02;53.24
77839;SHT31;67034;43.226;27.932;2023-05-28T13:33:08;26.36;52.81
77839;SHT31;67034;43.226;27.932;2023-05-28T13:35:33;26.65;52.07
77839;SHT31;67034;43.226;27.932;2023-05-28T13:38:00;26.45;51.31
77839;SHT31;67034;43.226;27.932;2023-05-28T13:40:26;26.41;52.26
77839;SHT31;67034;43.226;27.932;2023-05-28T13:42:53;26.32;52.74
77839;SHT31;67034;43.226;27.932;2023-05-28T13:45:19;26.12;53.06
77839;SHT31;67034;43.226;27.932;2023-05-28T13:47:45;25.92;54.06
77839;SHT31;67034;43.226;27.932;2023-05-28T13:50:10;25.76;54.39
77839;SHT31;67034;43.226;27.932;2023-05-28T13:52:36;25.58;55.21
77839;SHT31;67034;43.226;27.932;2023-05-28T13:55:04;25.41;55.96
77839;SHT31;67034;43.226;27.932;2023-05-28T13:57:30;25.34;56.22
77839;SHT31;67034;43.226;27.932;2023-05-28T13:59:55;25.17;56.20
77839;SHT31;67034;43.226;27.932;2023-05-28T14:02:21;24.79;57.25
77839;SHT31;67034;43.226;27.932;2023-05-28T14:04:47;24.68;57.82
77839;SHT31;67034;43.226;27.932;2023-05-28T14:07:13;24.49;58.47
77839;SHT31;67034;43.226;27.932;2023-05-28T14:09:39;24.56;58.45
77839;SHT31;67034;43.226;27.932;2023-05-28T14:12:06;24.42;58.83
77839;SHT31;67034;43.226;27.932;2023-05-28T14:14:32;24.48;59.20
77839;SHT31;67034;43.226;27.932;2023-05-28T14:16:57;24.56;59.43
77839;SHT31;67034;43.226;27.932;2023-05-28T14:19:23;24.91;58.88
77839;SHT31;67034;43.226;27.932;2023-05-28T14:21:49;25.24;58.03
77839;SHT31;67034;43.226;27.932;2023-05-28T14:24:14;25.42;57.55
77839;SHT31;67034;43.226;27.932;2023-05-28T14:26:40;25.47;57.27
77839;SHT31;67034;43.226;27.932;2023-05-28T14:29:07;25.11;57.53
77839;SHT31;67034;43.226;27.932;2023-05-28T14:31:33;24.76;58.08
77839;SHT31;67034;43.226;27.932;2023-05-28T14:33:58;24.68;58.90
77839;SHT31;67034;43.226;27.932;2023-05-28T14:36:25;24.79;58.77
77839;SHT31;67034;43.226;27.932;2023-05-28T14:38:51;24.90;58.57
77839;SHT31;67034;43.226;27.932;2023-05-28T14:41:17;25.03;58.12
77839;SHT31;67034;43.226;27.932;2023-05-28T14:43:44;25.07;58.04
77839;SHT31;67034;43.226;27.932;2023-05-28T14:46:11;25.14;57.79
77839;SHT31;67034;43.226;27.932;2023-05-28T14:48:37;25.27;57.40
77839;SHT31;67034;43.226;27.932;2023-05-28T14:51:03;25.41;57.37
77839;SHT31;67034;43.226;27.932;2023-05-28T14:53:32;25.55;56.94
77839;SHT31;67034;43.226;27.932;2023-05-28T14:55:58;25.68;56.86
77839;SHT31;67034;43.226;27.932;2023-05-28T14:58:23;25.85;56.59
77839;SHT31;67034;43.226;27.932;2023-05-28T15:00:49;26.19;56.24
77839;SHT31;67034;43.226;27.932;2023-05-28T15:03:17;26.53;55.80
77839;SHT31;67034;43.226;27.932;2023-05-28T15:05:43;26.48;55.57
77839;SHT31;67034;43.226;27.932;2023-05-28T15:08:08;26.24;56.32
77839;SHT31;67034;43.226;27.932;2023-05-28T15:10:35;26.09;56.68